createdAt,value
2018-11-13T00:00:23.301Z,39.13
2018-11-13T00:02:52.374Z,38.97
2018-11-13T00:05:21.605Z,39.30
2018-11-13T00:07:50.072Z,32.77
2018-11-13T00:10:18.596Z,31.90
2018-11-13T00:12:47.211Z,32.27
2018-11-13T00:15:15.731Z,31.80
2018-11-13T00:17:44.527Z,32.10
2018-11-13T00:20:17.430Z,32.27
2018-11-13T00:22:47.078Z,34.17
2018-11-13T00:25:16.939Z,31.87
2018-11-13T00:27:49.548Z,30.00
2018-11-13T00:30:23.877Z,33.60
2018-11-13T00:32:52.346Z,34.73
2018-11-13T00:35:21.486Z,38.20
2018-11-13T00:37:50.545Z,41.33
2018-11-13T00:40:19.433Z,42.37
2018-11-13T00:42:48.702Z,42.73
2018-11-13T00:45:17.490Z,44.93
2018-11-13T00:47:46.025Z,47.90
2018-11-13T00:50:17.055Z,51.85
2018-11-13T00:52:46.176Z,51.47
2018-11-13T00:55:15.012Z,52.60
2018-11-13T00:57:43.847Z,52.37
2018-11-13T01:00:16.112Z,51.43
2018-11-13T01:02:45.429Z,50.47
2018-11-13T01:05:17.403Z,48.03
2018-11-13T01:07:47.237Z,47.23
2018-11-13T01:10:17.781Z,41.97
2018-11-13T01:12:47.064Z,41.93
2018-11-13T01:15:16.832Z,44.67
2018-11-13T01:17:46.142Z,41.40
2018-11-13T01:20:15.819Z,41.77
2018-11-13T01:22:44.366Z,41.43
2018-11-13T01:25:14.033Z,39.30
2018-11-13T01:27:43.273Z,38.17
2018-11-13T01:30:12.562Z,38.15
2018-11-13T01:46:09.981Z,34.07
2018-11-13T01:48:38.741Z,34.37
2018-11-13T01:51:07.286Z,34.87
2018-11-13T01:53:35.817Z,33.93
2018-11-13T01:56:04.401Z,31.73
2018-11-13T01:58:33.222Z,32.77
2018-11-13T02:09:08.071Z,35.43
2018-11-13T02:11:36.749Z,33.13
2018-11-13T02:14:05.361Z,33.50
2018-11-13T02:16:33.893Z,34.30
2018-11-13T02:19:02.610Z,32.73
2018-11-13T02:21:31.907Z,32.73
2018-11-13T02:24:00.595Z,32.33
2018-11-13T02:26:29.469Z,32.07
2018-11-13T02:28:59.139Z,30.93
2018-11-13T02:31:27.743Z,30.83
2018-11-13T02:33:56.254Z,31.03
2018-11-13T02:36:24.963Z,31.70
2018-11-13T02:38:53.399Z,31.83
2018-11-13T02:41:21.856Z,31.90
2018-11-13T02:43:50.417Z,31.20
2018-11-13T02:46:18.980Z,30.30
2018-11-13T02:48:48.753Z,31.00
2018-11-13T02:51:17.483Z,32.13
2018-11-13T02:53:46.019Z,31.83
2018-11-13T02:56:14.645Z,31.10
2018-11-13T02:58:43.292Z,29.87
2018-11-13T03:01:11.846Z,31.07
2018-11-13T03:03:40.472Z,31.77
2018-11-13T03:06:08.981Z,31.77
2018-11-13T03:08:37.638Z,32.40
2018-11-13T03:11:06.072Z,35.68
2018-11-13T03:13:34.692Z,34.63
2018-11-13T03:16:03.032Z,33.57
2018-11-13T03:18:32.557Z,30.90
2018-11-13T03:21:01.054Z,31.60
2018-11-13T03:23:29.582Z,29.93
2018-11-13T03:25:58.094Z,30.10
2018-11-13T03:28:26.799Z,33.43
2018-11-13T03:30:55.662Z,31.30
2018-11-13T03:33:24.207Z,28.93
2018-11-13T03:35:52.724Z,29.40
2018-11-13T03:38:21.275Z,30.83
2018-11-13T03:40:49.846Z,31.43
2018-11-13T03:43:18.437Z,32.13
2018-11-13T03:45:47.069Z,31.70
2018-11-13T03:48:15.556Z,32.03
2018-11-13T03:50:44.122Z,32.33
2018-11-13T03:53:12.657Z,32.00
2018-11-13T03:55:41.514Z,32.43
2018-11-13T03:58:10.042Z,32.50
2018-11-13T04:00:38.656Z,34.03
2018-11-13T04:03:07.139Z,34.97
2018-11-13T04:05:35.734Z,35.73
2018-11-13T04:08:04.467Z,38.40
2018-11-13T04:10:32.966Z,38.57
2018-11-13T04:13:01.549Z,40.83
2018-11-13T04:15:30.200Z,43.23
2018-11-13T04:17:58.827Z,40.20
2018-11-13T04:20:27.611Z,42.57
2018-11-13T04:22:56.228Z,43.27
2018-11-13T04:25:24.840Z,43.57
2018-11-13T04:27:53.445Z,43.57
2018-11-13T04:30:21.891Z,43.17
2018-11-13T04:32:50.474Z,43.53
2018-11-13T04:35:19.392Z,45.97
2018-11-13T04:37:48.277Z,45.33
2018-11-13T04:40:17.991Z,45.00
2018-11-13T04:42:48.057Z,47.20
2018-11-13T04:45:17.767Z,47.20
2018-11-13T04:47:47.236Z,45.27
2018-11-13T04:50:17.190Z,46.10
2018-11-13T04:52:45.830Z,44.80
2018-11-13T04:55:14.810Z,46.43
2018-11-13T04:57:44.170Z,47.83
2018-11-13T05:00:15.274Z,48.53
2018-11-13T05:02:44.397Z,50.83
2018-11-13T05:05:13.956Z,51.33
2018-11-13T05:07:43.700Z,53.30
2018-11-13T05:10:13.011Z,51.17
2018-11-13T05:12:43.014Z,50.87
2018-11-13T05:15:12.019Z,48.07
2018-11-13T05:17:41.446Z,47.33
2018-11-13T05:20:10.978Z,47.10
2018-11-13T05:22:39.611Z,48.17
2018-11-13T05:25:10.490Z,47.50
2018-11-13T05:27:39.492Z,47.53
2018-11-13T05:30:10.428Z,46.73
2018-11-13T05:32:39.553Z,48.23
2018-11-13T05:35:10.477Z,44.90
2018-11-13T05:37:39.440Z,44.97
2018-11-13T05:40:10.654Z,45.37
2018-11-13T05:42:39.410Z,43.33
2018-11-13T05:45:09.602Z,44.57
2018-11-13T05:47:38.331Z,43.73
2018-11-13T05:50:08.166Z,42.57
2018-11-13T05:52:36.927Z,42.13
2018-11-13T05:55:06.577Z,41.87
2018-11-13T05:57:35.619Z,40.20
2018-11-13T06:00:04.447Z,42.17
2018-11-13T06:02:32.933Z,41.90
2018-11-13T06:05:01.585Z,42.20
2018-11-13T06:07:30.094Z,44.57
2018-11-13T06:09:58.814Z,43.40
2018-11-13T06:12:27.650Z,42.80
2018-11-13T06:14:56.139Z,43.23
2018-11-13T06:17:25.239Z,41.80
2018-11-13T06:19:53.754Z,41.83
2018-11-13T06:22:22.251Z,41.93
2018-11-13T06:24:50.993Z,41.47
2018-11-13T06:27:19.496Z,42.43
2018-11-13T06:29:48.164Z,42.77
2018-11-13T06:32:16.751Z,42.87
2018-11-13T06:34:45.258Z,42.00
2018-11-13T06:37:13.924Z,42.10
2018-11-13T06:39:42.397Z,40.63
2018-11-13T06:42:10.847Z,40.47
2018-11-13T06:44:39.383Z,39.97
2018-11-13T06:47:07.868Z,42.20
2018-11-13T06:49:36.661Z,41.83
2018-11-13T06:52:05.442Z,40.15
2018-11-13T06:55:14.755Z,37.77
2018-11-13T06:57:43.300Z,36.50
2018-11-13T07:00:11.755Z,36.13
2018-11-13T07:02:40.443Z,41.63
2018-11-13T07:05:11.676Z,43.03
2018-11-13T07:07:40.699Z,38.77
2018-11-13T07:10:11.505Z,40.47
2018-11-13T07:12:41.181Z,38.43
2018-11-13T07:15:11.658Z,36.90
2018-11-13T07:17:40.446Z,36.37
2018-11-13T07:20:09.538Z,36.07
2018-11-13T07:22:38.229Z,38.57
2018-11-13T07:25:07.023Z,36.90
2018-11-13T07:27:35.631Z,36.27
2018-11-13T07:30:04.660Z,35.57
2018-11-13T07:32:33.170Z,34.87
2018-11-13T07:35:01.730Z,34.73
2018-11-13T07:37:30.354Z,33.73
2018-11-13T07:39:58.907Z,34.07
2018-11-13T07:42:27.689Z,33.97
2018-11-13T07:44:56.488Z,35.60
2018-11-13T07:47:25.154Z,35.07
2018-11-13T07:49:53.702Z,35.30
2018-11-13T07:52:22.221Z,33.90
2018-11-13T07:54:50.801Z,34.57
2018-11-13T07:57:19.459Z,34.47
2018-11-13T07:59:47.908Z,33.87
2018-11-13T08:02:16.621Z,32.97
2018-11-13T08:04:45.187Z,32.23
2018-11-13T08:07:13.760Z,30.57
2018-11-13T08:09:42.777Z,30.73
2018-11-13T08:12:11.334Z,29.67
2018-11-13T08:14:40.242Z,29.10
2018-11-13T08:17:08.791Z,30.83
2018-11-13T08:19:37.390Z,30.73
2018-11-13T08:22:06.327Z,29.17
2018-11-13T08:24:34.783Z,28.27
2018-11-13T08:27:03.370Z,27.87
2018-11-13T08:29:31.914Z,28.20
2018-11-13T08:32:00.426Z,27.10
2018-11-13T08:34:29.118Z,27.40
2018-11-13T08:36:57.853Z,28.37
2018-11-13T08:39:26.401Z,28.40
2018-11-13T08:41:55.047Z,27.03
2018-11-13T08:44:23.830Z,26.93
2018-11-13T08:46:53.298Z,27.67
2018-11-13T08:49:21.858Z,26.00
2018-11-13T08:51:50.564Z,25.10
2018-11-13T08:54:19.104Z,24.20
2018-11-13T08:56:47.718Z,24.70
2018-11-13T08:59:16.343Z,23.83
2018-11-13T09:01:44.725Z,25.00
2018-11-13T09:04:13.259Z,26.30
2018-11-13T09:06:41.746Z,26.17
2018-11-13T09:09:12.338Z,27.07
2018-11-13T09:11:40.865Z,30.30
2018-11-13T09:14:09.603Z,28.87
2018-11-13T09:16:38.331Z,27.50
2018-11-13T09:19:07.021Z,31.40
2018-11-13T09:21:35.815Z,28.10
2018-11-13T09:24:04.406Z,48.37
2018-11-13T09:26:33.438Z,27.37
2018-11-13T09:29:01.947Z,27.27
2018-11-13T09:31:30.518Z,32.87
2018-11-13T09:33:59.275Z,26.60
2018-11-13T09:36:27.830Z,26.90
2018-11-13T09:38:56.372Z,25.00
2018-11-13T09:41:25.186Z,23.23
2018-11-13T09:43:53.730Z,22.73
2018-11-13T09:46:22.618Z,23.33
2018-11-13T09:48:51.092Z,23.80
2018-11-13T09:51:19.791Z,22.33
2018-11-13T09:53:48.377Z,23.33
2018-11-13T09:56:17.062Z,22.83
2018-11-13T09:58:45.688Z,27.97
2018-11-13T10:01:14.566Z,28.27
2018-11-13T10:03:43.683Z,27.13
2018-11-13T10:06:11.641Z,25.70
2018-11-13T10:08:40.189Z,26.23
2018-11-13T10:11:08.914Z,26.07
2018-11-13T10:13:37.589Z,24.83
2018-11-13T10:16:06.240Z,25.80
2018-11-13T10:18:34.758Z,24.57
2018-11-13T10:21:03.267Z,23.27
2018-11-13T10:23:31.813Z,22.20
2018-11-13T10:26:00.330Z,20.50
2018-11-13T10:28:28.928Z,21.77
2018-11-13T10:30:57.578Z,20.53
2018-11-13T10:33:26.179Z,20.37
2018-11-13T10:35:54.739Z,20.77
2018-11-13T10:38:23.287Z,21.47
2018-11-13T10:40:51.882Z,21.17
2018-11-13T10:43:20.451Z,22.40
2018-11-13T10:45:49.234Z,22.37
2018-11-13T10:48:17.819Z,23.30
2018-11-13T10:50:46.444Z,21.20
2018-11-13T10:53:15.287Z,22.67
2018-11-13T10:55:43.859Z,21.90
2018-11-13T10:58:12.585Z,22.17
2018-11-13T11:01:45.327Z,22.50
2018-11-13T11:04:19.275Z,23.03
2018-11-13T11:06:47.783Z,21.03
2018-11-13T11:09:16.706Z,21.97
2018-11-13T11:11:45.277Z,21.87
2018-11-13T11:14:13.990Z,21.40
2018-11-13T11:16:42.695Z,21.50
2018-11-13T11:19:11.771Z,20.20
2018-11-13T11:21:41.441Z,21.47
2018-11-13T11:24:10.169Z,20.37
2018-11-13T11:26:38.735Z,18.93
2018-11-13T11:29:07.281Z,19.13
2018-11-13T11:31:35.789Z,21.13
2018-11-13T11:34:04.481Z,20.30
2018-11-13T11:36:33.057Z,20.83
2018-11-13T11:39:02.107Z,20.67
2018-11-13T11:41:30.503Z,22.10
2018-11-13T11:43:59.322Z,21.50
2018-11-13T11:46:27.866Z,20.23
2018-11-13T11:48:56.531Z,21.53
2018-11-13T11:51:25.104Z,20.73
2018-11-13T11:53:53.612Z,21.63
2018-11-13T11:56:22.214Z,21.73
2018-11-13T11:58:50.936Z,21.80
2018-11-13T12:01:19.407Z,21.87
2018-11-13T12:03:50.078Z,22.00
2018-11-13T12:06:18.604Z,21.37
2018-11-13T12:08:47.266Z,22.87
2018-11-13T12:11:15.978Z,21.63
2018-11-13T12:13:44.429Z,22.67
2018-11-13T12:16:14.153Z,22.07
2018-11-13T12:18:42.666Z,19.27
2018-11-13T12:21:11.214Z,21.37
2018-11-13T12:23:40.177Z,22.43
2018-11-13T12:26:09.042Z,20.93
2018-11-13T12:28:37.950Z,21.17
2018-11-13T12:31:06.623Z,22.77
2018-11-13T12:33:35.396Z,22.50
2018-11-13T12:36:03.918Z,24.13
2018-11-13T12:38:32.472Z,21.97
2018-11-13T12:41:00.969Z,23.93
2018-11-13T12:43:29.457Z,24.80
2018-11-13T12:45:58.026Z,22.70
2018-11-13T12:48:27.711Z,24.10
2018-11-13T12:50:59.905Z,24.82
2018-11-13T12:53:28.461Z,24.10
2018-11-13T12:55:56.985Z,23.93
2018-11-13T12:58:25.580Z,22.53
2018-11-13T13:00:54.190Z,25.93
2018-11-13T13:03:22.870Z,24.23
2018-11-13T13:05:51.448Z,23.07
2018-11-13T13:08:19.936Z,24.20
2018-11-13T13:10:48.483Z,26.73
2018-11-13T13:13:16.922Z,26.67
2018-11-13T13:15:45.493Z,25.47
2018-11-13T13:18:14.070Z,23.93
2018-11-13T13:20:42.772Z,25.67
2018-11-13T13:23:11.297Z,27.10
2018-11-13T13:25:40.368Z,30.17
2018-11-13T13:28:10.002Z,30.07
2018-11-13T13:30:39.489Z,32.00
2018-11-13T13:33:09.114Z,32.33
2018-11-13T13:35:43.937Z,32.17
2018-11-13T13:38:13.495Z,27.80
2018-11-13T13:40:44.185Z,27.30
2018-11-13T13:43:14.436Z,25.77
2018-11-13T13:45:44.850Z,26.07
2018-11-13T13:48:14.617Z,23.63
2018-11-13T13:50:44.294Z,25.73
2018-11-13T13:53:15.044Z,26.33
2018-11-13T13:55:45.802Z,21.23
2018-11-13T13:58:15.965Z,18.80
2018-11-13T14:00:46.384Z,23.83
2018-11-13T14:03:16.104Z,22.37
2018-11-13T14:05:46.390Z,17.10
2018-11-13T14:08:16.770Z,15.23
2018-11-13T14:10:46.670Z,11.00
2018-11-13T14:13:16.674Z,11.47
2018-11-13T14:15:46.413Z,17.47
2018-11-13T14:18:16.279Z,18.73
2018-11-13T14:20:46.178Z,16.70
2018-11-13T14:23:15.968Z,15.37
2018-11-13T14:25:45.673Z,13.73
2018-11-13T14:28:15.185Z,8.37
2018-11-13T14:30:45.190Z,8.93
2018-11-13T14:33:14.955Z,11.03
2018-11-13T14:35:44.722Z,12.57
2018-11-13T14:38:14.958Z,10.77
2018-11-13T14:40:45.792Z,12.57
2018-11-13T14:43:16.036Z,12.03
2018-11-13T14:47:15.374Z,14.50
2018-11-13T14:49:45.094Z,13.67
2018-11-13T14:52:14.802Z,13.03
2018-11-13T14:54:44.406Z,13.97
2018-11-13T14:57:14.388Z,15.03
2018-11-13T14:59:44.302Z,13.87
2018-11-13T15:02:14.237Z,13.40
2018-11-13T15:04:43.767Z,12.73
2018-11-13T15:07:13.366Z,11.77
2018-11-13T15:09:43.305Z,9.43
2018-11-13T15:12:12.990Z,12.93
2018-11-13T15:14:42.950Z,12.23
2018-11-13T15:17:12.363Z,13.73
2018-11-13T15:19:41.900Z,14.70
2018-11-13T15:22:12.113Z,14.37
2018-11-13T15:24:42.385Z,16.63
2018-11-13T15:27:12.105Z,15.63
2018-11-13T15:29:41.968Z,14.30
2018-11-13T15:32:10.841Z,16.23
2018-11-13T15:34:39.690Z,16.83
2018-11-13T15:37:08.833Z,12.93
2018-11-13T15:39:37.693Z,12.13
2018-11-13T15:42:07.213Z,10.00
2018-11-13T15:44:36.308Z,11.50
2018-11-13T15:47:05.403Z,10.87
2018-11-13T15:49:34.543Z,13.07
2018-11-13T15:52:03.334Z,15.57
2018-11-13T15:54:33.098Z,15.67
2018-11-13T15:57:02.172Z,16.93
2018-11-13T15:59:30.891Z,18.20
2018-11-13T16:02:00.049Z,15.50
2018-11-13T16:04:28.956Z,14.93
2018-11-13T16:06:59.334Z,18.23
2018-11-13T16:09:28.091Z,16.97
2018-11-13T16:11:56.948Z,18.07
2018-11-13T16:14:26.461Z,18.20
2018-11-13T16:16:55.157Z,16.33
2018-11-13T16:19:24.602Z,17.37
2018-11-13T16:21:53.506Z,17.03
2018-11-13T16:24:22.754Z,15.07
2018-11-13T16:26:51.621Z,18.17
2018-11-13T16:29:20.273Z,16.13
2018-11-13T16:31:49.258Z,17.13
2018-11-13T16:34:17.876Z,17.23
2018-11-13T16:36:47.075Z,16.90
2018-11-13T16:39:15.959Z,12.67
2018-11-13T16:41:44.595Z,19.20
2018-11-13T16:44:13.100Z,14.40
2018-11-13T16:46:41.688Z,17.97
2018-11-13T16:49:10.332Z,19.27
2018-11-13T16:51:39.695Z,17.65
2018-11-13T16:54:08.601Z,11.90
2018-11-13T16:56:51.673Z,13.93
2018-11-13T16:59:20.145Z,17.50
2018-11-13T17:01:48.944Z,20.27
2018-11-13T17:04:17.718Z,26.03
2018-11-13T17:06:46.405Z,13.67
2018-11-13T17:09:14.942Z,17.53
2018-11-13T17:11:43.764Z,10.83
2018-11-13T17:14:12.339Z,18.60
2018-11-13T17:16:41.003Z,17.70
2018-11-13T17:19:09.494Z,17.23
2018-11-13T17:21:38.286Z,19.27
2018-11-13T17:24:06.952Z,16.83
2018-11-13T17:26:36.826Z,17.40
2018-11-13T17:29:06.683Z,14.03
2018-11-13T17:31:35.666Z,14.43
2018-11-13T17:34:04.291Z,19.20
2018-11-13T17:36:32.935Z,17.60
2018-11-13T17:39:01.418Z,14.27
2018-11-13T17:41:30.183Z,14.70
2018-11-13T17:43:58.873Z,11.97
2018-11-13T17:46:27.510Z,14.43
2018-11-13T17:48:56.106Z,12.00
2018-11-13T17:51:24.861Z,12.40
2018-11-13T17:53:53.686Z,11.97
2018-11-13T17:56:22.256Z,13.00
2018-11-13T17:58:50.991Z,15.47
2018-11-13T18:01:19.733Z,15.83
2018-11-13T18:03:48.302Z,14.03
2018-11-13T18:06:16.912Z,13.50
2018-11-13T18:08:46.373Z,11.93
2018-11-13T18:11:15.058Z,15.33
2018-11-13T18:13:43.553Z,13.07
2018-11-13T18:16:12.038Z,14.73
2018-11-13T18:18:40.529Z,14.03
2018-11-13T18:21:09.006Z,11.90
2018-11-13T18:23:37.781Z,15.03
2018-11-13T18:26:06.653Z,15.33
2018-11-13T18:28:36.084Z,14.73
2018-11-13T18:31:06.305Z,17.17
2018-11-13T18:33:35.784Z,16.40
2018-11-13T18:36:05.585Z,17.67
2018-11-13T18:38:35.314Z,16.03
2018-11-13T18:41:04.930Z,14.63
2018-11-13T18:43:34.375Z,15.17
2018-11-13T18:46:04.218Z,16.17
2018-11-13T18:48:34.029Z,14.43
2018-11-13T18:51:03.816Z,15.67
2018-11-13T18:53:33.846Z,16.43
2018-11-13T18:56:03.387Z,18.83
2018-11-13T18:58:32.692Z,17.03
2018-11-13T19:01:01.848Z,17.47
2018-11-13T19:03:31.486Z,18.43
2018-11-13T19:06:01.323Z,16.83
2018-11-13T19:08:31.107Z,16.10
2018-11-13T19:11:03.377Z,18.40
2018-11-13T19:13:33.339Z,16.40
2018-11-13T19:16:05.369Z,19.60
2018-11-13T19:18:36.296Z,18.27
2018-11-13T19:21:06.447Z,17.87
2018-11-13T19:23:36.207Z,16.77
2018-11-13T19:26:05.849Z,16.40
2018-11-13T19:28:35.243Z,17.60
2018-11-13T19:31:05.119Z,19.17
2018-11-13T19:33:34.525Z,17.27
2018-11-13T19:36:04.637Z,19.77
2018-11-13T19:38:34.059Z,18.37
2018-11-13T19:41:04.008Z,17.70
2018-11-13T19:43:33.542Z,18.37
2018-11-13T19:46:03.106Z,17.63
2018-11-13T19:50:02.610Z,16.43
2018-11-13T19:52:32.102Z,16.43
2018-11-13T19:55:01.737Z,16.07
2018-11-13T19:57:31.214Z,15.57
2018-11-13T20:00:02.935Z,13.47
2018-11-13T20:02:32.546Z,14.03
2018-11-13T20:05:02.254Z,14.67
2018-11-13T20:07:31.166Z,12.20
2018-11-13T20:10:00.092Z,13.87
2018-11-13T20:12:29.252Z,12.67
2018-11-13T20:14:59.620Z,13.13
2018-11-13T20:17:28.604Z,11.50
2018-11-13T20:19:57.642Z,12.87
2018-11-13T20:22:26.162Z,11.10
2018-11-13T20:24:54.607Z,13.27
2018-11-13T20:27:23.154Z,13.33
2018-11-13T20:29:51.736Z,12.30
2018-11-13T20:32:20.346Z,12.00
2018-11-13T20:34:49.094Z,11.47
2018-11-13T20:37:17.678Z,11.43
2018-11-13T20:39:46.206Z,12.47
2018-11-13T20:42:14.814Z,12.57
2018-11-13T20:44:44.687Z,12.23
2018-11-13T20:47:14.679Z,11.43
2018-11-13T20:49:43.828Z,11.67
2018-11-13T20:52:12.695Z,14.37
2018-11-13T20:54:42.501Z,14.60
2018-11-13T20:57:11.243Z,13.97
2018-11-13T20:59:39.815Z,13.80
2018-11-13T21:02:09.710Z,14.83
2018-11-13T21:04:38.415Z,13.33
2018-11-13T21:07:07.531Z,13.53
2018-11-13T21:09:36.154Z,13.60
2018-11-13T21:12:04.741Z,13.53
2018-11-13T21:14:33.327Z,11.00
2018-11-13T21:17:02.336Z,12.00
2018-11-13T21:19:31.350Z,9.57
2018-11-13T21:22:00.281Z,8.30
2018-11-13T21:24:28.848Z,8.33
2018-11-13T21:26:57.523Z,9.80
2018-11-13T21:29:26.581Z,9.53
2018-11-13T21:31:55.018Z,9.28
2018-11-13T21:34:23.576Z,9.60
2018-11-13T21:36:53.265Z,8.93
2018-11-13T21:39:22.001Z,9.70
2018-11-13T21:41:50.777Z,8.70
2018-11-13T21:44:19.429Z,7.60
2018-11-13T21:46:47.947Z,6.33
2018-11-13T21:49:17.742Z,5.00
2018-11-13T21:51:46.492Z,5.77
2018-11-13T21:54:15.134Z,3.30
2018-11-13T21:56:43.694Z,3.00
2018-11-13T21:59:12.315Z,3.60
2018-11-13T22:01:40.775Z,2.90
2018-11-13T22:04:09.463Z,3.27
2018-11-13T22:06:38.351Z,4.17
2018-11-13T22:09:10.935Z,5.03
2018-11-13T22:11:39.629Z,3.80
2018-11-13T22:14:08.223Z,4.87
2018-11-13T22:16:36.933Z,4.43
2018-11-13T22:19:05.763Z,4.93
2018-11-13T22:21:34.211Z,5.90
2018-11-13T22:24:02.767Z,5.43
2018-11-13T22:26:31.231Z,6.03
2018-11-13T22:28:59.800Z,4.57
2018-11-13T22:31:28.519Z,4.35
2018-11-13T22:33:57.045Z,4.27
2018-11-13T22:36:25.523Z,4.30
2018-11-13T22:38:54.286Z,4.13
2018-11-13T22:41:22.726Z,4.40
2018-11-13T22:43:51.205Z,4.50
2018-11-13T22:46:19.726Z,4.17
2018-11-13T22:48:48.404Z,4.43
2018-11-13T22:51:16.897Z,4.23
2018-11-13T22:53:45.638Z,3.93
2018-11-13T22:56:14.224Z,4.00
2018-11-13T22:58:42.917Z,4.30
2018-11-13T23:01:11.584Z,3.80
2018-11-13T23:03:40.008Z,4.07
2018-11-13T23:06:08.524Z,3.70
2018-11-13T23:08:36.983Z,1.80
2018-11-13T23:11:12.630Z,2.40
2018-11-13T23:13:41.326Z,2.50
2018-11-13T23:16:09.876Z,2.63
2018-11-13T23:18:38.397Z,1.40
2018-11-13T23:21:07.289Z,2.50
2018-11-13T23:23:35.788Z,2.23
2018-11-13T23:26:04.310Z,1.80
2018-11-13T23:28:32.944Z,1.30
2018-11-13T23:31:02.614Z,1.80
2018-11-13T23:33:31.406Z,1.90
2018-11-13T23:36:00.194Z,1.53
2018-11-13T23:38:28.744Z,2.27
2018-11-13T23:40:57.438Z,2.03
2018-11-13T23:43:25.938Z,2.27
2018-11-13T23:45:54.450Z,2.20
2018-11-13T23:48:23.155Z,2.80
2018-11-13T23:50:51.623Z,3.07
2018-11-13T23:53:20.358Z,3.50
2018-11-13T23:55:48.843Z,2.87
2018-11-13T23:58:17.343Z,3.10
